首页
METAR-TAF:

METAR-TAF

机场 :

巴夫那加尔, 印度

纬度: 21-45-08N, 经度: 72-11-07E, 海拔: 6米

当前天气观测

该预报发布于13小时和19分钟前的12:30 UTC
风速13节,风向南转南东
温度 36°C
湿度 57%
气压 1002 hPa
能見度: 8000
少量云层高于2500英尺

METAR: VABV 161230Z 16013KT 8000 FEW025 36/26 Q1002

时间: 07:19 (01:49 UTC)

预报

该预报发布于2小时和49分钟前的23:00 UTC
预报有效从17日的 00点(UTC)到 17日的 09点(UTC)
风速10节,风向西南
能見度: 5000
少量云层高于2000英尺
成为
从 17日的 04点(UTC)到 17日的 06点(UTC)
风速8节,风向
成为
从 17日的 07点(UTC)到 17日的 09点(UTC)
风速13节,风向
能見度: 3000
散云层高于2000英尺
少量云层高于8000英尺
雨,

TAF: VABV 162300Z 1700/1709 23010KT 5000 FU FEW020 BECMG 1704/1706 18008KT BECMG 1707/1709 18013KT 3000 RA SCT020 FEW080

超过4000个机场的气象观测和天气预报(METAR&TAF报告)。

可查询的气象台以黄色和红色小点在地图上表示。

将鼠标移到小点上方,可查看气象台名称。

然后点击查看天气观测和预报。

如需切换地图:点击带黑十字的绿色按钮放大地图;点击带横线的绿色按钮缩小地图;或者点击绿色箭头查看邻近地区的地图。


METAR-TAF: